Terminal Aerodrome Forecast
Issued by NWS Missoula, MT

Home | Current Version | Previous Version | Text Only | Print | Product List | Glossary On
Versions: 1 2 3 4 5 6 7 8 9 10 11 12 13 14 15 16 17
387
FTUS45 KMSO 151138
TAFGPI
TAF
KGPI 151138Z 1512/1612 00000KT 6SM BR VCFG OVC013
     FM151800 VRB05KT P6SM VCSH SCT015 OVC025
     FM152100 22005KT 3SM -SN BR BKN015 OVC020
     FM160900 33005KT 5SM BR VCSH OVC020=

USA.gov is the U.S. government's official web portal to all federal, state and local government web resources and services.